sensor_id;sensor_type;location;lat;lon;timestamp;temperature;humidity
64143;DHT22;50437;51.970;5.904;2022-08-25T00:00:33;24.20;58.30
64143;DHT22;50437;51.970;5.904;2022-08-25T00:02:59;24.10;58.20
64143;DHT22;50437;51.970;5.904;2022-08-25T00:05:26;24.20;58.00
64143;DHT22;50437;51.970;5.904;2022-08-25T00:07:52;24.20;58.00
64143;DHT22;50437;51.970;5.904;2022-08-25T00:10:19;24.10;57.80
64143;DHT22;50437;51.970;5.904;2022-08-25T00:12:45;24.10;57.30
64143;DHT22;50437;51.970;5.904;2022-08-25T00:15:11;24.20;57.60
64143;DHT22;50437;51.970;5.904;2022-08-25T00:17:37;24.20;57.20
64143;DHT22;50437;51.970;5.904;2022-08-25T00:20:04;24.10;56.90
64143;DHT22;50437;51.970;5.904;2022-08-25T00:22:30;24.00;56.90
64143;DHT22;50437;51.970;5.904;2022-08-25T00:24:56;24.00;56.70
64143;DHT22;50437;51.970;5.904;2022-08-25T00:27:22;24.00;56.60
64143;DHT22;50437;51.970;5.904;2022-08-25T00:29:48;24.00;56.40
64143;DHT22;50437;51.970;5.904;2022-08-25T00:32:15;24.00;56.60
64143;DHT22;50437;51.970;5.904;2022-08-25T00:34:43;24.00;56.10
64143;DHT22;50437;51.970;5.904;2022-08-25T00:37:09;24.00;55.90
64143;DHT22;50437;51.970;5.904;2022-08-25T00:39:35;24.00;55.80
64143;DHT22;50437;51.970;5.904;2022-08-25T00:42:01;23.90;56.00
64143;DHT22;50437;51.970;5.904;2022-08-25T00:44:28;23.90;56.20
64143;DHT22;50437;51.970;5.904;2022-08-25T00:46:56;23.90;56.30
64143;DHT22;50437;51.970;5.904;2022-08-25T00:52:02;23.80;56.10
64143;DHT22;50437;51.970;5.904;2022-08-25T00:54:30;23.80;56.20
64143;DHT22;50437;51.970;5.904;2022-08-25T00:56:57;23.80;56.30
64143;DHT22;50437;51.970;5.904;2022-08-25T00:59:24;23.70;56.30
64143;DHT22;50437;51.970;5.904;2022-08-25T01:01:51;23.70;56.20
64143;DHT22;50437;51.970;5.904;2022-08-25T01:04:19;23.70;56.20
64143;DHT22;50437;51.970;5.904;2022-08-25T01:06:45;23.60;56.20
64143;DHT22;50437;51.970;5.904;2022-08-25T01:09:12;23.50;56.50
64143;DHT22;50437;51.970;5.904;2022-08-25T01:11:39;23.60;56.80
64143;DHT22;50437;51.970;5.904;2022-08-25T01:14:06;23.60;56.50
64143;DHT22;50437;51.970;5.904;2022-08-25T01:16:33;23.50;57.10
64143;DHT22;50437;51.970;5.904;2022-08-25T01:18:59;23.60;56.50
64143;DHT22;50437;51.970;5.904;2022-08-25T01:21:26;23.50;56.80
64143;DHT22;50437;51.970;5.904;2022-08-25T01:23:53;23.50;56.50
64143;DHT22;50437;51.970;5.904;2022-08-25T01:26:27;23.40;56.20
64143;DHT22;50437;51.970;5.904;2022-08-25T01:28:54;23.40;56.20
64143;DHT22;50437;51.970;5.904;2022-08-25T01:31:38;23.30;56.40
64143;DHT22;50437;51.970;5.904;2022-08-25T01:34:05;23.30;56.60
64143;DHT22;50437;51.970;5.904;2022-08-25T01:36:31;23.30;56.20
64143;DHT22;50437;51.970;5.904;2022-08-25T01:38:58;23.20;56.20
64143;DHT22;50437;51.970;5.904;2022-08-25T01:43:57;23.20;56.40
64143;DHT22;50437;51.970;5.904;2022-08-25T01:46:23;23.20;56.20
64143;DHT22;50437;51.970;5.904;2022-08-25T01:48:49;23.20;55.80
64143;DHT22;50437;51.970;5.904;2022-08-25T01:51:15;23.10;55.50
64143;DHT22;50437;51.970;5.904;2022-08-25T01:53:43;23.10;55.40
64143;DHT22;50437;51.970;5.904;2022-08-25T01:56:10;23.20;55.60
64143;DHT22;50437;51.970;5.904;2022-08-25T01:58:38;23.20;55.50
64143;DHT22;50437;51.970;5.904;2022-08-25T02:01:05;23.20;55.80
64143;DHT22;50437;51.970;5.904;2022-08-25T02:03:32;23.20;55.50
64143;DHT22;50437;51.970;5.904;2022-08-25T02:06:00;23.20;55.60
64143;DHT22;50437;51.970;5.904;2022-08-25T02:08:26;23.20;55.60
64143;DHT22;50437;51.970;5.904;2022-08-25T02:10:52;23.20;55.50
64143;DHT22;50437;51.970;5.904;2022-08-25T02:13:20;23.20;54.80
64143;DHT22;50437;51.970;5.904;2022-08-25T02:15:48;23.20;54.80
64143;DHT22;50437;51.970;5.904;2022-08-25T02:18:15;23.20;54.40
64143;DHT22;50437;51.970;5.904;2022-08-25T02:20:41;23.30;54.50
64143;DHT22;50437;51.970;5.904;2022-08-25T02:23:07;23.30;54.00
64143;DHT22;50437;51.970;5.904;2022-08-25T02:25:33;23.30;53.40
64143;DHT22;50437;51.970;5.904;2022-08-25T02:27:59;23.40;53.40
64143;DHT22;50437;51.970;5.904;2022-08-25T02:30:25;23.40;53.30
64143;DHT22;50437;51.970;5.904;2022-08-25T02:32:51;23.40;53.00
64143;DHT22;50437;51.970;5.904;2022-08-25T02:35:18;23.50;52.60
64143;DHT22;50437;51.970;5.904;2022-08-25T02:37:43;23.50;51.80
64143;DHT22;50437;51.970;5.904;2022-08-25T02:40:09;23.50;51.60
64143;DHT22;50437;51.970;5.904;2022-08-25T02:42:36;23.60;51.50
64143;DHT22;50437;51.970;5.904;2022-08-25T02:45:02;23.50;51.50
64143;DHT22;50437;51.970;5.904;2022-08-25T02:47:28;23.60;51.30
64143;DHT22;50437;51.970;5.904;2022-08-25T02:49:56;23.60;51.60
64143;DHT22;50437;51.970;5.904;2022-08-25T02:52:22;23.60;51.80
64143;DHT22;50437;51.970;5.904;2022-08-25T02:54:50;23.50;51.20
64143;DHT22;50437;51.970;5.904;2022-08-25T02:57:16;23.60;51.10
64143;DHT22;50437;51.970;5.904;2022-08-25T02:59:42;23.50;50.80
64143;DHT22;50437;51.970;5.904;2022-08-25T03:02:12;23.40;51.00
64143;DHT22;50437;51.970;5.904;2022-08-25T03:04:37;23.40;51.10
64143;DHT22;50437;51.970;5.904;2022-08-25T03:07:03;23.30;51.40
64143;DHT22;50437;51.970;5.904;2022-08-25T03:09:30;23.30;51.50
64143;DHT22;50437;51.970;5.904;2022-08-25T03:11:56;23.20;51.70
64143;DHT22;50437;51.970;5.904;2022-08-25T03:14:22;23.20;51.80
64143;DHT22;50437;51.970;5.904;2022-08-25T03:16:48;23.10;52.00
64143;DHT22;50437;51.970;5.904;2022-08-25T03:19:14;23.10;52.00
64143;DHT22;50437;51.970;5.904;2022-08-25T03:21:41;23.00;52.20
64143;DHT22;50437;51.970;5.904;2022-08-25T03:24:07;23.00;52.70
64143;DHT22;50437;51.970;5.904;2022-08-25T03:26:33;23.00;52.40
64143;DHT22;50437;51.970;5.904;2022-08-25T03:29:17;22.90;52.60
64143;DHT22;50437;51.970;5.904;2022-08-25T03:31:44;22.90;52.90
64143;DHT22;50437;51.970;5.904;2022-08-25T03:34:11;22.80;52.80
64143;DHT22;50437;51.970;5.904;2022-08-25T03:36:37;22.80;52.80
64143;DHT22;50437;51.970;5.904;2022-08-25T03:39:03;22.80;53.10
64143;DHT22;50437;51.970;5.904;2022-08-25T03:41:29;22.70;53.40
64143;DHT22;50437;51.970;5.904;2022-08-25T03:43:57;22.70;53.20
64143;DHT22;50437;51.970;5.904;2022-08-25T03:46:28;22.60;53.50
64143;DHT22;50437;51.970;5.904;2022-08-25T03:48:54;22.60;53.50
64143;DHT22;50437;51.970;5.904;2022-08-25T03:51:28;22.50;53.60
64143;DHT22;50437;51.970;5.904;2022-08-25T03:53:55;22.50;53.60
64143;DHT22;50437;51.970;5.904;2022-08-25T03:56:22;22.60;53.70
64143;DHT22;50437;51.970;5.904;2022-08-25T03:58:48;22.50;53.80
64143;DHT22;50437;51.970;5.904;2022-08-25T04:01:14;22.50;54.00
64143;DHT22;50437;51.970;5.904;2022-08-25T04:03:40;22.40;54.00
64143;DHT22;50437;51.970;5.904;2022-08-25T04:06:06;22.40;54.00
64143;DHT22;50437;51.970;5.904;2022-08-25T04:08:33;22.40;54.10
64143;DHT22;50437;51.970;5.904;2022-08-25T04:11:19;22.40;54.20
64143;DHT22;50437;51.970;5.904;2022-08-25T04:13:45;22.30;54.30
64143;DHT22;50437;51.970;5.904;2022-08-25T04:16:12;22.30;54.50
64143;DHT22;50437;51.970;5.904;2022-08-25T04:18:39;22.30;54.60
64143;DHT22;50437;51.970;5.904;2022-08-25T04:21:08;22.20;54.60
64143;DHT22;50437;51.970;5.904;2022-08-25T04:23:38;22.20;54.60
64143;DHT22;50437;51.970;5.904;2022-08-25T04:26:13;22.20;54.70
64143;DHT22;50437;51.970;5.904;2022-08-25T04:28:39;22.20;55.00
64143;DHT22;50437;51.970;5.904;2022-08-25T04:31:09;22.20;55.10
64143;DHT22;50437;51.970;5.904;2022-08-25T04:33:35;22.10;54.90
64143;DHT22;50437;51.970;5.904;2022-08-25T04:36:06;22.10;55.10
64143;DHT22;50437;51.970;5.904;2022-08-25T04:38:33;22.10;55.00
64143;DHT22;50437;51.970;5.904;2022-08-25T04:41:01;22.00;55.00
64143;DHT22;50437;51.970;5.904;2022-08-25T04:43:31;22.00;55.30
64143;DHT22;50437;51.970;5.904;2022-08-25T04:45:58;22.00;55.40
64143;DHT22;50437;51.970;5.904;2022-08-25T04:48:24;21.90;55.30
64143;DHT22;50437;51.970;5.904;2022-08-25T04:50:51;21.90;55.10
64143;DHT22;50437;51.970;5.904;2022-08-25T04:53:17;21.90;55.10
64143;DHT22;50437;51.970;5.904;2022-08-25T04:55:44;21.90;55.50
64143;DHT22;50437;51.970;5.904;2022-08-25T04:58:11;22.00;55.60
64143;DHT22;50437;51.970;5.904;2022-08-25T05:00:37;21.90;55.30
64143;DHT22;50437;51.970;5.904;2022-08-25T05:03:04;21.90;55.70
64143;DHT22;50437;51.970;5.904;2022-08-25T05:05:30;21.90;55.80
64143;DHT22;50437;51.970;5.904;2022-08-25T05:07:56;21.90;56.10
64143;DHT22;50437;51.970;5.904;2022-08-25T05:10:22;21.90;56.10
64143;DHT22;50437;51.970;5.904;2022-08-25T05:12:49;21.90;55.80
64143;DHT22;50437;51.970;5.904;2022-08-25T05:15:15;21.90;56.20
64143;DHT22;50437;51.970;5.904;2022-08-25T05:17:59;21.90;56.20
64143;DHT22;50437;51.970;5.904;2022-08-25T05:20:25;21.80;56.60
64143;DHT22;50437;51.970;5.904;2022-08-25T05:22:51;21.80;57.20
64143;DHT22;50437;51.970;5.904;2022-08-25T05:25:17;21.80;56.40
64143;DHT22;50437;51.970;5.904;2022-08-25T05:27:43;21.90;56.50
64143;DHT22;50437;51.970;5.904;2022-08-25T05:30:09;21.90;56.50
64143;DHT22;50437;51.970;5.904;2022-08-25T05:32:36;21.90;56.30
64143;DHT22;50437;51.970;5.904;2022-08-25T05:35:02;21.80;56.90
64143;DHT22;50437;51.970;5.904;2022-08-25T05:37:29;21.90;56.60
64143;DHT22;50437;51.970;5.904;2022-08-25T05:39:55;21.90;56.30
64143;DHT22;50437;51.970;5.904;2022-08-25T05:42:21;21.90;56.50
64143;DHT22;50437;51.970;5.904;2022-08-25T05:44:47;21.90;56.50
64143;DHT22;50437;51.970;5.904;2022-08-25T05:47:13;22.00;56.10
64143;DHT22;50437;51.970;5.904;2022-08-25T05:49:39;22.00;55.90
64143;DHT22;50437;51.970;5.904;2022-08-25T05:52:06;22.00;55.90
64143;DHT22;50437;51.970;5.904;2022-08-25T05:54:32;22.00;56.00
64143;DHT22;50437;51.970;5.904;2022-08-25T05:56:58;22.00;55.50
64143;DHT22;50437;51.970;5.904;2022-08-25T05:59:25;22.10;55.70
64143;DHT22;50437;51.970;5.904;2022-08-25T06:01:51;22.10;55.80
64143;DHT22;50437;51.970;5.904;2022-08-25T06:04:36;22.10;55.70
64143;DHT22;50437;51.970;5.904;2022-08-25T06:07:02;22.10;55.50
64143;DHT22;50437;51.970;5.904;2022-08-25T06:09:28;22.10;55.50
64143;DHT22;50437;51.970;5.904;2022-08-25T06:11:54;22.20;55.40
64143;DHT22;50437;51.970;5.904;2022-08-25T06:14:20;22.20;54.70
64143;DHT22;50437;51.970;5.904;2022-08-25T06:16:46;22.30;54.30
64143;DHT22;50437;51.970;5.904;2022-08-25T06:19:14;22.30;54.40
64143;DHT22;50437;51.970;5.904;2022-08-25T06:21:41;22.40;53.90
64143;DHT22;50437;51.970;5.904;2022-08-25T06:24:08;22.50;53.80
64143;DHT22;50437;51.970;5.904;2022-08-25T06:26:35;22.50;53.80
64143;DHT22;50437;51.970;5.904;2022-08-25T06:29:01;22.50;53.40
64143;DHT22;50437;51.970;5.904;2022-08-25T06:31:27;22.50;53.30
64143;DHT22;50437;51.970;5.904;2022-08-25T06:33:53;22.60;53.30
64143;DHT22;50437;51.970;5.904;2022-08-25T06:36:19;22.60;53.00
64143;DHT22;50437;51.970;5.904;2022-08-25T06:38:46;22.70;53.10
64143;DHT22;50437;51.970;5.904;2022-08-25T06:41:12;22.70;52.50
64143;DHT22;50437;51.970;5.904;2022-08-25T06:43:39;22.80;52.80
64143;DHT22;50437;51.970;5.904;2022-08-25T06:46:12;22.80;52.40
64143;DHT22;50437;51.970;5.904;2022-08-25T06:48:38;22.90;52.30
64143;DHT22;50437;51.970;5.904;2022-08-25T06:51:06;22.90;52.20
64143;DHT22;50437;51.970;5.904;2022-08-25T06:53:32;22.90;52.50
64143;DHT22;50437;51.970;5.904;2022-08-25T06:55:58;23.00;51.90
64143;DHT22;50437;51.970;5.904;2022-08-25T06:58:24;23.20;51.50
64143;DHT22;50437;51.970;5.904;2022-08-25T07:00:50;23.20;51.50
64143;DHT22;50437;51.970;5.904;2022-08-25T07:03:16;23.10;51.60
64143;DHT22;50437;51.970;5.904;2022-08-25T07:05:49;23.20;51.70
64143;DHT22;50437;51.970;5.904;2022-08-25T07:08:15;23.30;51.40
64143;DHT22;50437;51.970;5.904;2022-08-25T07:10:41;23.30;51.10
64143;DHT22;50437;51.970;5.904;2022-08-25T07:13:07;23.40;51.10
64143;DHT22;50437;51.970;5.904;2022-08-25T07:15:36;23.40;51.30
64143;DHT22;50437;51.970;5.904;2022-08-25T07:18:02;23.40;51.30
64143;DHT22;50437;51.970;5.904;2022-08-25T07:20:28;23.50;51.20
64143;DHT22;50437;51.970;5.904;2022-08-25T07:22:56;23.60;50.50
64143;DHT22;50437;51.970;5.904;2022-08-25T07:25:22;23.70;51.10
64143;DHT22;50437;51.970;5.904;2022-08-25T07:27:48;23.80;50.60
64143;DHT22;50437;51.970;5.904;2022-08-25T07:30:15;23.90;50.60
64143;DHT22;50437;51.970;5.904;2022-08-25T07:32:41;24.00;50.50
64143;DHT22;50437;51.970;5.904;2022-08-25T07:35:07;24.10;50.10
64143;DHT22;50437;51.970;5.904;2022-08-25T07:37:44;24.20;48.60
64143;DHT22;50437;51.970;5.904;2022-08-25T07:40:11;24.40;49.00
64143;DHT22;50437;51.970;5.904;2022-08-25T07:42:38;24.50;48.40
64143;DHT22;50437;51.970;5.904;2022-08-25T07:45:05;24.60;48.80
64143;DHT22;50437;51.970;5.904;2022-08-25T07:47:31;24.70;48.40
64143;DHT22;50437;51.970;5.904;2022-08-25T07:49:57;24.80;48.20
64143;DHT22;50437;51.970;5.904;2022-08-25T07:52:23;24.90;47.70
64143;DHT22;50437;51.970;5.904;2022-08-25T07:54:49;25.10;48.00
64143;DHT22;50437;51.970;5.904;2022-08-25T07:57:18;25.30;47.20
64143;DHT22;50437;51.970;5.904;2022-08-25T07:59:46;25.40;46.50
64143;DHT22;50437;51.970;5.904;2022-08-25T08:02:12;25.60;46.30
64143;DHT22;50437;51.970;5.904;2022-08-25T08:04:38;26.00;45.70
64143;DHT22;50437;51.970;5.904;2022-08-25T08:07:05;27.80;43.00
64143;DHT22;50437;51.970;5.904;2022-08-25T08:09:31;30.30;38.80
64143;DHT22;50437;51.970;5.904;2022-08-25T08:11:57;32.10;34.80
64143;DHT22;50437;51.970;5.904;2022-08-25T08:14:23;33.30;32.70
64143;DHT22;50437;51.970;5.904;2022-08-25T08:16:49;34.10;30.80
64143;DHT22;50437;51.970;5.904;2022-08-25T08:19:15;34.30;29.50
64143;DHT22;50437;51.970;5.904;2022-08-25T08:21:41;34.40;29.20
64143;DHT22;50437;51.970;5.904;2022-08-25T08:24:07;34.70;29.30
64143;DHT22;50437;51.970;5.904;2022-08-25T08:26:33;35.00;29.00
64143;DHT22;50437;51.970;5.904;2022-08-25T08:28:59;35.00;29.00
64143;DHT22;50437;51.970;5.904;2022-08-25T08:31:25;35.30;28.90
64143;DHT22;50437;51.970;5.904;2022-08-25T08:33:53;35.60;28.10
64143;DHT22;50437;51.970;5.904;2022-08-25T08:36:20;36.10;27.30
64143;DHT22;50437;51.970;5.904;2022-08-25T08:38:46;37.00;27.30
64143;DHT22;50437;51.970;5.904;2022-08-25T08:41:16;36.90;26.10
64143;DHT22;50437;51.970;5.904;2022-08-25T08:44:12;37.50;25.90
64143;DHT22;50437;51.970;5.904;2022-08-25T08:46:47;37.70;25.40
64143;DHT22;50437;51.970;5.904;2022-08-25T08:49:32;38.10;25.90
64143;DHT22;50437;51.970;5.904;2022-08-25T08:52:00;38.00;25.10
64143;DHT22;50437;51.970;5.904;2022-08-25T08:54:28;37.40;26.00
64143;DHT22;50437;51.970;5.904;2022-08-25T08:57:02;37.40;25.40
64143;DHT22;50437;51.970;5.904;2022-08-25T08:59:30;37.40;25.60
64143;DHT22;50437;51.970;5.904;2022-08-25T09:01:58;37.90;24.90
64143;DHT22;50437;51.970;5.904;2022-08-25T09:04:31;38.40;24.50
64143;DHT22;50437;51.970;5.904;2022-08-25T09:06:57;38.50;25.30
64143;DHT22;50437;51.970;5.904;2022-08-25T09:09:26;38.90;24.00
64143;DHT22;50437;51.970;5.904;2022-08-25T09:11:56;39.30;24.10
64143;DHT22;50437;51.970;5.904;2022-08-25T09:16:57;40.00;23.00
64143;DHT22;50437;51.970;5.904;2022-08-25T09:22:56;39.60;23.50
64143;DHT22;50437;51.970;5.904;2022-08-25T09:32:31;39.30;23.60
64143;DHT22;50437;51.970;5.904;2022-08-25T09:34:58;39.60;23.60
64143;DHT22;50437;51.970;5.904;2022-08-25T09:37:25;39.70;23.40
64143;DHT22;50437;51.970;5.904;2022-08-25T09:39:51;40.00;22.70
64143;DHT22;50437;51.970;5.904;2022-08-25T09:42:18;40.50;22.50
64143;DHT22;50437;51.970;5.904;2022-08-25T09:44:45;40.60;22.80
64143;DHT22;50437;51.970;5.904;2022-08-25T09:47:29;40.80;22.30
64143;DHT22;50437;51.970;5.904;2022-08-25T09:49:57;40.60;21.60
64143;DHT22;50437;51.970;5.904;2022-08-25T09:52:38;40.40;22.30
64143;DHT22;50437;51.970;5.904;2022-08-25T10:00:12;40.30;21.40
64143;DHT22;50437;51.970;5.904;2022-08-25T10:02:42;39.60;21.80
64143;DHT22;50437;51.970;5.904;2022-08-25T10:05:22;39.40;22.20
64143;DHT22;50437;51.970;5.904;2022-08-25T10:07:52;39.40;21.50
64143;DHT22;50437;51.970;5.904;2022-08-25T10:10:29;40.10;22.00
64143;DHT22;50437;51.970;5.904;2022-08-25T10:12:55;40.40;21.90
64143;DHT22;50437;51.970;5.904;2022-08-25T10:15:27;40.50;22.00
64143;DHT22;50437;51.970;5.904;2022-08-25T10:17:53;41.00;21.80
64143;DHT22;50437;51.970;5.904;2022-08-25T10:20:24;41.10;21.10
64143;DHT22;50437;51.970;5.904;2022-08-25T10:22:50;41.10;20.90
64143;DHT22;50437;51.970;5.904;2022-08-25T10:25:25;40.90;20.50
64143;DHT22;50437;51.970;5.904;2022-08-25T10:35:29;40.80;20.90
64143;DHT22;50437;51.970;5.904;2022-08-25T10:43:12;40.80;19.80
64143;DHT22;50437;51.970;5.904;2022-08-25T10:45:48;41.10;19.80
64143;DHT22;50437;51.970;5.904;2022-08-25T10:51:06;40.80;19.00
64143;DHT22;50437;51.970;5.904;2022-08-25T10:53:38;40.70;19.10
64143;DHT22;50437;51.970;5.904;2022-08-25T11:01:13;41.10;18.70
64143;DHT22;50437;51.970;5.904;2022-08-25T11:03:43;41.30;18.90
64143;DHT22;50437;51.970;5.904;2022-08-25T11:06:56;41.20;18.00
64143;DHT22;50437;51.970;5.904;2022-08-25T11:09:01;40.20;18.90
64143;DHT22;50437;51.970;5.904;2022-08-25T11:11:49;40.60;20.00
64143;DHT22;50437;51.970;5.904;2022-08-25T11:14:20;41.00;19.60
64143;DHT22;50437;51.970;5.904;2022-08-25T11:16:51;41.10;18.60
64143;DHT22;50437;51.970;5.904;2022-08-25T11:19:54;41.00;18.40
64143;DHT22;50437;51.970;5.904;2022-08-25T11:22:16;40.60;19.00
64143;DHT22;50437;51.970;5.904;2022-08-25T11:24:51;40.30;19.60
64143;DHT22;50437;51.970;5.904;2022-08-25T11:27:23;40.10;19.30
64143;DHT22;50437;51.970;5.904;2022-08-25T11:30:07;40.30;19.10
64143;DHT22;50437;51.970;5.904;2022-08-25T11:32:35;40.40;19.20
64143;DHT22;50437;51.970;5.904;2022-08-25T11:35:03;40.30;18.70
64143;DHT22;50437;51.970;5.904;2022-08-25T11:37:30;39.50;20.20
64143;DHT22;50437;51.970;5.904;2022-08-25T11:40:18;39.40;19.00
64143;DHT22;50437;51.970;5.904;2022-08-25T11:48:19;38.80;21.00
64143;DHT22;50437;51.970;5.904;2022-08-25T11:53:29;38.30;20.20
64143;DHT22;50437;51.970;5.904;2022-08-25T11:56:00;38.00;20.70
64143;DHT22;50437;51.970;5.904;2022-08-25T11:58:31;37.80;21.10
64143;DHT22;50437;51.970;5.904;2022-08-25T12:00:58;37.80;20.50
64143;DHT22;50437;51.970;5.904;2022-08-25T12:11:17;37.10;21.10
64143;DHT22;50437;51.970;5.904;2022-08-25T12:21:47;37.10;21.00
64143;DHT22;50437;51.970;5.904;2022-08-25T12:24:14;37.20;21.00
64143;DHT22;50437;51.970;5.904;2022-08-25T12:26:43;37.10;21.10
64143;DHT22;50437;51.970;5.904;2022-08-25T12:31:51;37.10;20.80
64143;DHT22;50437;51.970;5.904;2022-08-25T12:37:24;37.20;21.00
64143;DHT22;50437;51.970;5.904;2022-08-25T12:45:40;36.50;22.10
64143;DHT22;50437;51.970;5.904;2022-08-25T12:47:40;36.70;21.50
64143;DHT22;50437;51.970;5.904;2022-08-25T12:52:52;36.70;21.50
64143;DHT22;50437;51.970;5.904;2022-08-25T12:55:19;36.50;21.80
64143;DHT22;50437;51.970;5.904;2022-08-25T12:57:52;36.40;21.50
64143;DHT22;50437;51.970;5.904;2022-08-25T13:00:24;36.30;21.80
64143;DHT22;50437;51.970;5.904;2022-08-25T13:08:57;35.40;21.60
64143;DHT22;50437;51.970;5.904;2022-08-25T13:11:31;35.10;22.30
64143;DHT22;50437;51.970;5.904;2022-08-25T13:14:34;34.80;22.30
64143;DHT22;50437;51.970;5.904;2022-08-25T13:17:02;34.70;22.70
64143;DHT22;50437;51.970;5.904;2022-08-25T13:19:28;34.90;23.30
64143;DHT22;50437;51.970;5.904;2022-08-25T13:21:54;35.00;22.60
64143;DHT22;50437;51.970;5.904;2022-08-25T13:24:40;35.00;23.20
64143;DHT22;50437;51.970;5.904;2022-08-25T13:27:07;35.00;22.30
64143;DHT22;50437;51.970;5.904;2022-08-25T13:29:35;35.10;22.80
64143;DHT22;50437;51.970;5.904;2022-08-25T13:32:05;35.10;22.60
64143;DHT22;50437;51.970;5.904;2022-08-25T13:34:33;35.20;22.50
64143;DHT22;50437;51.970;5.904;2022-08-25T13:37:06;35.20;22.00
64143;DHT22;50437;51.970;5.904;2022-08-25T13:40:05;35.20;22.40
64143;DHT22;50437;51.970;5.904;2022-08-25T13:42:31;35.30;22.50
64143;DHT22;50437;51.970;5.904;2022-08-25T13:44:57;35.10;22.30
64143;DHT22;50437;51.970;5.904;2022-08-25T13:47:36;35.20;21.90
64143;DHT22;50437;51.970;5.904;2022-08-25T13:50:37;35.40;22.30
64143;DHT22;50437;51.970;5.904;2022-08-25T13:52:57;35.70;22.40
64143;DHT22;50437;51.970;5.904;2022-08-25T13:55:36;35.80;21.80
64143;DHT22;50437;51.970;5.904;2022-08-25T13:58:04;35.80;21.80
64143;DHT22;50437;51.970;5.904;2022-08-25T14:00:38;35.60;21.80
64143;DHT22;50437;51.970;5.904;2022-08-25T14:03:05;35.40;21.40
64143;DHT22;50437;51.970;5.904;2022-08-25T14:05:41;35.60;22.20
64143;DHT22;50437;51.970;5.904;2022-08-25T14:11:06;35.50;21.90
64143;DHT22;50437;51.970;5.904;2022-08-25T14:13:32;35.50;22.30
64143;DHT22;50437;51.970;5.904;2022-08-25T14:18:34;35.80;21.40
64143;DHT22;50437;51.970;5.904;2022-08-25T14:21:00;35.90;21.30
64143;DHT22;50437;51.970;5.904;2022-08-25T14:23:28;36.00;21.80
64143;DHT22;50437;51.970;5.904;2022-08-25T14:25:55;36.00;21.50
64143;DHT22;50437;51.970;5.904;2022-08-25T14:28:23;35.60;22.00
64143;DHT22;50437;51.970;5.904;2022-08-25T14:31:09;35.60;21.30
64143;DHT22;50437;51.970;5.904;2022-08-25T14:33:38;35.50;22.00
64143;DHT22;50437;51.970;5.904;2022-08-25T14:36:04;35.50;22.10
64143;DHT22;50437;51.970;5.904;2022-08-25T14:38:31;35.50;22.20
64143;DHT22;50437;51.970;5.904;2022-08-25T14:40:58;35.50;21.70
64143;DHT22;50437;51.970;5.904;2022-08-25T14:43:24;35.50;22.00
64143;DHT22;50437;51.970;5.904;2022-08-25T14:45:50;35.50;21.40
64143;DHT22;50437;51.970;5.904;2022-08-25T14:48:19;35.70;22.50
64143;DHT22;50437;51.970;5.904;2022-08-25T14:50:49;35.70;22.30
64143;DHT22;50437;51.970;5.904;2022-08-25T14:53:15;35.80;21.50
64143;DHT22;50437;51.970;5.904;2022-08-25T14:55:41;35.90;21.90
64143;DHT22;50437;51.970;5.904;2022-08-25T14:58:07;35.80;21.50
64143;DHT22;50437;51.970;5.904;2022-08-25T15:00:34;35.80;21.00
64143;DHT22;50437;51.970;5.904;2022-08-25T15:03:01;35.70;21.90
64143;DHT22;50437;51.970;5.904;2022-08-25T15:05:27;35.70;21.80
64143;DHT22;50437;51.970;5.904;2022-08-25T15:07:53;35.70;21.10
64143;DHT22;50437;51.970;5.904;2022-08-25T15:10:38;35.80;21.00
64143;DHT22;50437;51.970;5.904;2022-08-25T15:13:04;35.90;21.20
64143;DHT22;50437;51.970;5.904;2022-08-25T15:15:31;35.80;21.80
64143;DHT22;50437;51.970;5.904;2022-08-25T15:17:57;35.90;21.00
64143;DHT22;50437;51.970;5.904;2022-08-25T15:20:24;35.80;21.40
64143;DHT22;50437;51.970;5.904;2022-08-25T15:22:50;35.70;21.30
64143;DHT22;50437;51.970;5.904;2022-08-25T15:25:16;35.60;21.30
64143;DHT22;50437;51.970;5.904;2022-08-25T15:27:43;35.50;22.00
64143;DHT22;50437;51.970;5.904;2022-08-25T15:30:09;35.50;21.30
64143;DHT22;50437;51.970;5.904;2022-08-25T15:32:35;35.60;21.70
64143;DHT22;50437;51.970;5.904;2022-08-25T15:35:02;35.60;21.90
64143;DHT22;50437;51.970;5.904;2022-08-25T15:37:28;35.50;21.40
64143;DHT22;50437;51.970;5.904;2022-08-25T15:39:54;35.40;21.90
64143;DHT22;50437;51.970;5.904;2022-08-25T15:42:20;35.30;21.60
64143;DHT22;50437;51.970;5.904;2022-08-25T15:44:46;35.20;20.60
64143;DHT22;50437;51.970;5.904;2022-08-25T15:47:12;35.30;21.90
64143;DHT22;50437;51.970;5.904;2022-08-25T15:49:38;35.30;20.50
64143;DHT22;50437;51.970;5.904;2022-08-25T15:52:04;35.20;20.10
64143;DHT22;50437;51.970;5.904;2022-08-25T15:54:30;35.20;20.30
64143;DHT22;50437;51.970;5.904;2022-08-25T15:56:56;35.10;21.90
64143;DHT22;50437;51.970;5.904;2022-08-25T15:59:22;35.20;21.80
64143;DHT22;50437;51.970;5.904;2022-08-25T16:01:51;35.20;20.90
64143;DHT22;50437;51.970;5.904;2022-08-25T16:04:21;35.10;20.90
64143;DHT22;50437;51.970;5.904;2022-08-25T16:06:47;35.10;21.00
64143;DHT22;50437;51.970;5.904;2022-08-25T16:09:13;35.10;21.10
64143;DHT22;50437;51.970;5.904;2022-08-25T16:11:39;35.10;21.70
64143;DHT22;50437;51.970;5.904;2022-08-25T16:14:08;35.10;21.20
64143;DHT22;50437;51.970;5.904;2022-08-25T16:16:34;35.00;21.10
64143;DHT22;50437;51.970;5.904;2022-08-25T16:19:03;34.90;22.10
64143;DHT22;50437;51.970;5.904;2022-08-25T16:21:31;35.10;21.70
64143;DHT22;50437;51.970;5.904;2022-08-25T16:24:03;35.00;21.00
64143;DHT22;50437;51.970;5.904;2022-08-25T16:26:30;34.90;21.10
64143;DHT22;50437;51.970;5.904;2022-08-25T16:28:56;34.90;21.20
64143;DHT22;50437;51.970;5.904;2022-08-25T16:31:22;34.90;21.60
64143;DHT22;50437;51.970;5.904;2022-08-25T16:33:48;34.80;21.90
64143;DHT22;50437;51.970;5.904;2022-08-25T16:36:19;34.90;21.70
64143;DHT22;50437;51.970;5.904;2022-08-25T16:38:49;34.80;20.80
64143;DHT22;50437;51.970;5.904;2022-08-25T16:41:20;34.60;21.40
64143;DHT22;50437;51.970;5.904;2022-08-25T16:43:47;34.70;23.90
64143;DHT22;50437;51.970;5.904;2022-08-25T16:46:17;34.70;22.00
64143;DHT22;50437;51.970;5.904;2022-08-25T16:48:43;34.60;21.20
64143;DHT22;50437;51.970;5.904;2022-08-25T16:51:19;34.50;21.70
64143;DHT22;50437;51.970;5.904;2022-08-25T16:53:46;34.40;22.60
64143;DHT22;50437;51.970;5.904;2022-08-25T16:56:31;34.40;22.70
64143;DHT22;50437;51.970;5.904;2022-08-25T16:58:58;34.30;22.10
64143;DHT22;50437;51.970;5.904;2022-08-25T17:01:24;34.10;21.70
64143;DHT22;50437;51.970;5.904;2022-08-25T17:03:51;34.00;21.40
64143;DHT22;50437;51.970;5.904;2022-08-25T17:06:18;33.80;24.20
64143;DHT22;50437;51.970;5.904;2022-08-25T17:08:44;33.70;23.30
64143;DHT22;50437;51.970;5.904;2022-08-25T17:11:11;33.50;23.40